createdAt,value
2022-12-12T00:01:41.064Z,-3.20
2022-12-12T00:04:09.498Z,-3.30
2022-12-12T00:06:38.057Z,-3.40
2022-12-12T00:09:06.667Z,-3.40
2022-12-12T00:11:35.243Z,-3.30
2022-12-12T00:14:04.052Z,-3.30
2022-12-12T00:16:32.529Z,-3.30
2022-12-12T00:19:02.149Z,-3.30
2022-12-12T00:21:31.450Z,-3.30
2022-12-12T00:24:00.857Z,-3.20
2022-12-12T00:26:31.278Z,-3.20
2022-12-12T00:29:00.928Z,-3.20
2022-12-12T00:31:29.648Z,-3.20
2022-12-12T00:33:58.284Z,-3.10
2022-12-12T00:36:30.569Z,-3.10
2022-12-12T00:38:59.479Z,-3.10
2022-12-12T00:41:27.772Z,-3.10
2022-12-12T00:43:56.133Z,-3.10
2022-12-12T00:46:26.576Z,-3.10
2022-12-12T00:48:58.766Z,-3.00
2022-12-12T00:51:30.962Z,-3.00
2022-12-12T00:54:00.923Z,-2.90
2022-12-12T00:56:30.899Z,-2.80
2022-12-12T00:59:00.664Z,-2.70
2022-12-12T01:01:31.910Z,-2.60
2022-12-12T01:04:01.309Z,-2.50
2022-12-12T01:06:31.422Z,-2.40
2022-12-12T01:09:00.231Z,-2.40
2022-12-12T01:11:29.012Z,-2.30
2022-12-12T01:13:58.002Z,-2.20
2022-12-12T01:16:27.787Z,-2.10
2022-12-12T01:18:56.088Z,-2.00
2022-12-12T01:21:25.140Z,-2.00
2022-12-12T01:23:55.086Z,-1.90
2022-12-12T01:26:25.065Z,-1.80
2022-12-12T01:28:53.931Z,-1.80
2022-12-12T01:31:22.694Z,-1.70
2022-12-12T01:33:51.488Z,-1.70
2022-12-12T01:36:22.653Z,-1.60
2022-12-12T01:38:53.939Z,-1.60
2022-12-12T01:41:24.596Z,-1.50
2022-12-12T01:43:54.958Z,-1.50
2022-12-12T01:46:40.483Z,-1.50
2022-12-12T01:49:24.040Z,-1.40
2022-12-12T01:51:56.577Z,-1.40
2022-12-12T01:54:28.011Z,-1.30
2022-12-12T01:57:00.762Z,-1.30
2022-12-12T01:59:30.455Z,-1.30
2022-12-12T02:01:59.004Z,-1.30
2022-12-12T02:04:30.434Z,-1.20
2022-12-12T02:06:58.810Z,-1.20
2022-12-12T02:09:27.722Z,-1.20
2022-12-12T02:11:59.186Z,-1.10
2022-12-12T02:14:31.071Z,-1.10
2022-12-12T02:17:34.104Z,-1.10
2022-12-12T02:20:44.229Z,-1.10
2022-12-12T02:23:49.562Z,-1.10
2022-12-12T02:27:01.547Z,-1.00
2022-12-12T02:30:10.473Z,-1.00
2022-12-12T02:32:58.772Z,-1.00
2022-12-12T02:35:36.935Z,-1.00
2022-12-12T02:38:16.534Z,-1.00
2022-12-12T02:40:50.836Z,-1.00
2022-12-12T02:43:27.519Z,-1.00
2022-12-12T02:45:58.741Z,-1.00
2022-12-12T02:48:34.947Z,-1.00
2022-12-12T02:51:05.840Z,-0.90
2022-12-12T02:53:34.740Z,-0.90
2022-12-12T02:56:05.153Z,-0.90
2022-12-12T02:58:35.466Z,-0.90
2022-12-12T03:01:23.590Z,-0.90
2022-12-12T03:04:19.075Z,-0.90
2022-12-12T03:07:18.978Z,-0.90
2022-12-12T03:10:00.985Z,-0.90
2022-12-12T03:12:39.277Z,-0.90
2022-12-12T03:15:15.336Z,-0.90
2022-12-12T03:17:49.990Z,-0.90
2022-12-12T03:20:25.636Z,-0.90
2022-12-12T03:22:58.836Z,-0.90
2022-12-12T03:25:33.020Z,-0.90
2022-12-12T03:28:05.925Z,-0.90
2022-12-12T03:30:41.980Z,-1.00
2022-12-12T03:33:18.870Z,-1.00
2022-12-12T03:35:55.620Z,-1.00
2022-12-12T03:38:27.170Z,-1.00
2022-12-12T03:40:58.410Z,-1.00
2022-12-12T03:43:29.184Z,-1.00
2022-12-12T03:46:04.992Z,-1.00
2022-12-12T03:48:37.739Z,-1.00
2022-12-12T03:51:11.571Z,-1.00
2022-12-12T03:53:43.069Z,-1.10
2022-12-12T03:56:19.065Z,-1.10
2022-12-12T03:58:52.379Z,-1.10
2022-12-12T04:01:23.945Z,-1.10
2022-12-12T04:04:00.971Z,-1.10
2022-12-12T04:06:38.731Z,-1.20
2022-12-12T04:09:28.011Z,-1.20
2022-12-12T04:12:22.790Z,-1.20
2022-12-12T04:15:13.531Z,-1.20
2022-12-12T04:17:45.573Z,-1.20
2022-12-12T04:20:46.185Z,-1.20
2022-12-12T04:23:26.393Z,-1.20
2022-12-12T04:26:20.099Z,-1.20
2022-12-12T04:28:56.068Z,-1.20
2022-12-12T04:31:28.139Z,-1.20
2022-12-12T04:34:03.348Z,-1.30
2022-12-12T04:36:34.675Z,-1.30
2022-12-12T04:39:07.543Z,-1.30
2022-12-12T04:41:39.232Z,-1.30
2022-12-12T04:44:11.276Z,-1.30
2022-12-12T04:46:41.631Z,-1.40
2022-12-12T04:49:16.818Z,-1.40
2022-12-12T04:51:49.735Z,-1.40
2022-12-12T04:54:24.622Z,-1.40
2022-12-12T04:56:56.722Z,-1.40
2022-12-12T04:59:25.857Z,-1.50
2022-12-12T05:02:00.929Z,-1.50
2022-12-12T05:04:34.968Z,-1.50
2022-12-12T05:07:08.775Z,-1.50
2022-12-12T05:09:39.221Z,-1.60
2022-12-12T05:12:08.640Z,-1.60
2022-12-12T05:14:37.179Z,-1.60
2022-12-12T05:17:10.540Z,-1.60
2022-12-12T05:19:40.193Z,-1.60
2022-12-12T05:22:08.430Z,-1.60
2022-12-12T05:24:38.255Z,-1.50
2022-12-12T05:27:07.121Z,-1.50
2022-12-12T05:29:35.501Z,-1.50
2022-12-12T05:32:03.815Z,-1.40
2022-12-12T05:34:32.261Z,-1.40
2022-12-12T05:37:00.850Z,-1.40
2022-12-12T05:39:30.178Z,-1.40
2022-12-12T05:42:00.174Z,-1.40
2022-12-12T05:44:28.695Z,-1.40
2022-12-12T05:46:57.071Z,-1.50
2022-12-12T05:49:25.673Z,-1.40
2022-12-12T05:51:54.109Z,-1.40
2022-12-12T05:54:22.422Z,-1.50
2022-12-12T05:56:50.874Z,-1.40
2022-12-12T05:59:21.179Z,-1.40
2022-12-12T06:01:49.495Z,-1.40
2022-12-12T06:04:18.028Z,-1.40
2022-12-12T06:06:47.480Z,-1.40
2022-12-12T06:09:17.006Z,-1.40
2022-12-12T06:11:45.447Z,-1.40
2022-12-12T06:14:13.719Z,-1.40
2022-12-12T06:16:43.591Z,-1.40
2022-12-12T06:19:11.942Z,-1.40
2022-12-12T06:21:40.264Z,-1.40
2022-12-12T06:24:12.495Z,-1.40
2022-12-12T06:26:40.751Z,-1.40
2022-12-12T06:29:09.013Z,-1.40
2022-12-12T06:31:37.264Z,-1.40
2022-12-12T06:34:08.077Z,-1.50
2022-12-12T06:36:36.699Z,-1.50
2022-12-12T06:39:05.363Z,-1.50
2022-12-12T06:41:34.717Z,-1.50
2022-12-12T06:44:03.248Z,-1.50
2022-12-12T06:46:32.160Z,-1.50
2022-12-12T06:49:01.240Z,-1.50
2022-12-12T06:51:33.423Z,-1.50
2022-12-12T06:54:01.772Z,-1.50
2022-12-12T06:56:30.358Z,-1.50
2022-12-12T06:59:00.500Z,-1.50
2022-12-12T07:01:28.902Z,-1.50
2022-12-12T07:03:57.272Z,-1.50
2022-12-12T07:06:26.599Z,-1.40
2022-12-12T07:08:58.248Z,-1.30
2022-12-12T07:11:28.836Z,-1.10
2022-12-12T07:13:58.253Z,-1.00
2022-12-12T07:16:26.982Z,-0.80
2022-12-12T07:18:55.785Z,-0.70
2022-12-12T07:21:24.259Z,-0.60
2022-12-12T07:23:52.504Z,-0.60
2022-12-12T07:26:23.711Z,-0.70
2022-12-12T07:28:52.837Z,-0.80
2022-12-12T07:31:24.572Z,-0.90
2022-12-12T07:33:54.278Z,-1.00
2022-12-12T07:36:22.713Z,-1.10
2022-12-12T07:38:51.056Z,-1.20
2022-12-12T07:41:24.105Z,-1.20
2022-12-12T07:43:54.448Z,-1.20
2022-12-12T07:46:25.268Z,-1.20
2022-12-12T07:48:54.192Z,-1.20
2022-12-12T07:51:24.318Z,-1.30
2022-12-12T07:53:52.640Z,-1.30
2022-12-12T07:56:22.324Z,-1.30
2022-12-12T07:58:51.193Z,-1.30
2022-12-12T08:01:23.039Z,-1.30
2022-12-12T08:03:51.894Z,-1.30
2022-12-12T08:06:21.723Z,-1.30
2022-12-12T08:08:51.486Z,-1.40
2022-12-12T08:11:23.575Z,-1.40
2022-12-12T08:13:52.982Z,-1.60
2022-12-12T08:16:23.950Z,-1.70
2022-12-12T08:18:55.113Z,-1.80
2022-12-12T08:21:26.018Z,-1.90
2022-12-12T08:23:57.305Z,-2.00
2022-12-12T08:26:28.888Z,-2.00
2022-12-12T08:28:58.166Z,-2.10
2022-12-12T08:31:27.556Z,-2.10
2022-12-12T08:33:56.298Z,-2.10
2022-12-12T08:36:26.752Z,-2.10
2022-12-12T08:38:55.159Z,-2.00
2022-12-12T08:41:24.078Z,-1.90
2022-12-12T08:43:53.895Z,-1.90
2022-12-12T08:46:22.781Z,-1.80
2022-12-12T08:48:51.424Z,-1.80
2022-12-12T08:51:20.530Z,-1.80
2022-12-12T08:53:53.948Z,-1.70
2022-12-12T08:56:24.435Z,-1.70
2022-12-12T08:58:54.381Z,-1.60
2022-12-12T09:01:24.511Z,-1.60
2022-12-12T09:03:55.168Z,-1.60
2022-12-12T09:06:24.902Z,-1.70
2022-12-12T09:08:54.227Z,-1.70
2022-12-12T09:11:23.488Z,-1.70
2022-12-12T09:13:54.577Z,-1.60
2022-12-12T09:16:26.286Z,-1.60
2022-12-12T09:18:54.676Z,-1.50
2022-12-12T09:21:24.662Z,-1.40
2022-12-12T09:23:52.996Z,-1.30
2022-12-12T09:26:21.775Z,-1.20
2022-12-12T09:28:50.952Z,-1.00
2022-12-12T09:31:21.522Z,-0.80
2022-12-12T09:33:50.544Z,-0.60
2022-12-12T09:36:20.039Z,-0.40
2022-12-12T09:38:48.667Z,-0.10
2022-12-12T09:41:19.827Z,0.10
2022-12-12T09:43:54.660Z,0.30
2022-12-12T09:46:33.141Z,0.50
2022-12-12T09:49:13.417Z,0.70
2022-12-12T09:51:43.840Z,0.80
2022-12-12T09:54:17.357Z,0.90
2022-12-12T09:56:57.898Z,1.00
2022-12-12T09:59:36.056Z,1.00
2022-12-12T10:02:23.840Z,1.00
2022-12-12T10:04:59.459Z,1.10
2022-12-12T10:07:34.310Z,1.30
2022-12-12T10:10:06.909Z,1.40
2022-12-12T10:12:35.892Z,1.50
2022-12-12T10:15:08.086Z,1.60
2022-12-12T10:17:41.456Z,1.70
2022-12-12T10:20:17.714Z,1.80
2022-12-12T10:22:51.511Z,1.90
2022-12-12T10:25:24.111Z,2.00
2022-12-12T10:27:54.903Z,1.90
2022-12-12T10:30:23.431Z,1.90
2022-12-12T10:33:13.152Z,1.90
2022-12-12T10:35:47.703Z,1.90
2022-12-12T10:38:30.572Z,2.00
2022-12-12T10:41:07.748Z,2.10
2022-12-12T10:43:44.261Z,2.20
2022-12-12T10:46:25.705Z,2.10
2022-12-12T10:48:55.782Z,1.90
2022-12-12T10:51:27.517Z,1.80
2022-12-12T10:53:56.665Z,1.90
2022-12-12T10:56:27.470Z,2.00
2022-12-12T10:58:57.975Z,2.20
2022-12-12T11:02:00.269Z,2.40
2022-12-12T11:04:28.435Z,2.80
2022-12-12T11:06:58.396Z,3.30
2022-12-12T11:09:30.058Z,4.00
2022-12-12T11:12:00.293Z,4.60
2022-12-12T11:14:33.105Z,5.10
2022-12-12T11:17:01.859Z,5.70
2022-12-12T11:19:39.390Z,6.30
2022-12-12T11:22:08.061Z,6.50
2022-12-12T11:24:44.911Z,6.30
2022-12-12T11:27:22.123Z,5.90
2022-12-12T11:29:53.043Z,5.50
2022-12-12T11:32:25.643Z,5.00
2022-12-12T11:34:58.275Z,4.50
2022-12-12T11:37:29.563Z,4.10
2022-12-12T11:39:58.562Z,3.70
2022-12-12T11:42:30.165Z,3.30
2022-12-12T11:45:02.792Z,2.90
2022-12-12T11:47:40.823Z,2.70
2022-12-12T11:50:22.903Z,2.60
2022-12-12T11:52:54.199Z,3.00
2022-12-12T11:55:32.721Z,3.80
2022-12-12T11:58:17.002Z,4.80
2022-12-12T12:00:50.629Z,5.80
2022-12-12T12:03:27.057Z,6.70
2022-12-12T12:06:12.540Z,7.40
2022-12-12T12:09:09.437Z,8.00
2022-12-12T12:11:46.808Z,8.60
2022-12-12T12:14:32.132Z,9.20
2022-12-12T12:17:07.318Z,9.50
2022-12-12T12:19:45.063Z,9.50
2022-12-12T12:22:27.898Z,9.50
2022-12-12T12:25:23.160Z,9.50
2022-12-12T12:28:05.750Z,9.70
2022-12-12T12:30:39.345Z,10.00
2022-12-12T12:33:27.605Z,10.50
2022-12-12T12:36:05.289Z,10.90
2022-12-12T12:38:53.278Z,11.40
2022-12-12T12:41:34.728Z,11.80
2022-12-12T12:44:19.536Z,12.20
2022-12-12T12:46:56.757Z,12.50
2022-12-12T12:49:28.444Z,12.70
2022-12-12T12:52:03.060Z,13.00
2022-12-12T12:54:38.611Z,13.20
2022-12-12T12:57:12.416Z,13.40
2022-12-12T12:59:44.473Z,13.60
2022-12-12T13:02:26.985Z,13.70
2022-12-12T13:05:06.810Z,13.80
2022-12-12T13:07:43.932Z,13.80
2022-12-12T13:10:21.471Z,13.90
2022-12-12T13:12:55.527Z,14.00
2022-12-12T13:15:27.951Z,14.00
2022-12-12T13:18:01.451Z,14.10
2022-12-12T13:20:34.406Z,14.00
2022-12-12T13:23:20.980Z,14.00
2022-12-12T13:25:58.251Z,14.00
2022-12-12T13:28:30.713Z,14.00
2022-12-12T13:31:27.009Z,14.00
2022-12-12T13:33:58.279Z,14.00
2022-12-12T13:36:32.368Z,14.10
2022-12-12T13:39:02.798Z,14.20
2022-12-12T13:41:55.629Z,14.20
2022-12-12T13:44:41.527Z,14.20
2022-12-12T13:47:29.275Z,14.30
2022-12-12T13:49:59.717Z,14.30
2022-12-12T13:52:30.252Z,14.30
2022-12-12T13:55:23.266Z,14.30
2022-12-12T13:58:21.397Z,14.40
2022-12-12T14:00:49.853Z,14.30
2022-12-12T14:03:30.445Z,14.30
2022-12-12T14:06:11.757Z,14.30
2022-12-12T14:08:48.790Z,14.10
2022-12-12T14:11:28.422Z,14.00
2022-12-12T14:14:16.375Z,13.90
2022-12-12T14:16:52.249Z,13.90
2022-12-12T14:19:30.064Z,13.80
2022-12-12T14:21:58.641Z,13.70
2022-12-12T14:25:03.836Z,13.70
2022-12-12T14:28:15.727Z,13.50
2022-12-12T14:31:02.974Z,12.60
2022-12-12T14:34:02.914Z,11.10
2022-12-12T14:37:10.874Z,10.10
2022-12-12T14:39:54.925Z,9.70
2022-12-12T14:43:21.115Z,9.60
2022-12-12T14:45:27.106Z,9.50
2022-12-12T14:48:17.410Z,9.20
2022-12-12T14:50:49.686Z,9.00
2022-12-12T14:53:22.653Z,8.80
2022-12-12T14:55:54.413Z,8.50
2022-12-12T14:58:26.411Z,8.20
2022-12-12T15:00:57.637Z,7.90
2022-12-12T15:03:33.254Z,7.50
2022-12-12T15:06:22.083Z,6.80
2022-12-12T15:08:50.945Z,6.00
2022-12-12T15:11:22.194Z,5.20
2022-12-12T15:13:52.409Z,4.40
2022-12-12T15:16:26.569Z,3.80
2022-12-12T15:18:59.903Z,3.20
2022-12-12T15:21:28.514Z,2.70
2022-12-12T15:23:56.853Z,2.30
2022-12-12T15:26:30.017Z,1.90
2022-12-12T15:28:58.715Z,1.60
2022-12-12T15:31:27.068Z,1.30
2022-12-12T15:33:57.090Z,1.00
2022-12-12T15:36:28.741Z,0.80
2022-12-12T15:39:13.986Z,0.50
2022-12-12T15:41:43.299Z,0.30
2022-12-12T15:44:18.329Z,0.10
2022-12-12T15:46:48.763Z,-0.10
2022-12-12T15:49:41.223Z,-0.30
2022-12-12T15:52:18.209Z,-0.50
2022-12-12T15:54:48.826Z,-0.70
2022-12-12T15:57:19.322Z,-0.80
2022-12-12T15:59:52.530Z,-1.00
2022-12-12T16:02:30.082Z,-1.10
2022-12-12T16:05:04.042Z,-1.30
2022-12-12T16:07:36.608Z,-1.40
2022-12-12T16:10:21.778Z,-1.50
2022-12-12T16:12:59.763Z,-1.70
2022-12-12T16:15:32.738Z,-1.80
2022-12-12T16:18:17.818Z,-1.90
2022-12-12T16:20:50.526Z,-2.00
2022-12-12T16:23:22.888Z,-2.10
2022-12-12T16:25:51.508Z,-2.20
2022-12-12T16:28:25.557Z,-2.30
2022-12-12T16:30:59.422Z,-2.40
2022-12-12T16:33:31.429Z,-2.50
2022-12-12T16:36:03.218Z,-2.60
2022-12-12T16:38:32.247Z,-2.60
2022-12-12T16:41:02.023Z,-2.70
2022-12-12T16:43:30.495Z,-2.70
2022-12-12T16:45:59.390Z,-2.80
2022-12-12T16:48:32.303Z,-2.80
2022-12-12T16:51:03.919Z,-2.90
2022-12-12T16:53:34.075Z,-3.00
2022-12-12T16:56:04.036Z,-3.00
2022-12-12T16:58:34.768Z,-3.10
2022-12-12T17:01:04.139Z,-3.20
2022-12-12T17:03:32.886Z,-3.20
2022-12-12T17:06:02.575Z,-3.30
2022-12-12T17:08:30.895Z,-3.30
2022-12-12T17:11:09.418Z,-3.30
2022-12-12T17:13:44.177Z,-3.40
2022-12-12T17:16:12.524Z,-3.40
2022-12-12T17:18:41.512Z,-3.40
2022-12-12T17:21:11.121Z,-3.40
2022-12-12T17:23:39.696Z,-3.40
2022-12-12T17:26:07.870Z,-3.50
2022-12-12T17:28:36.073Z,-3.50
2022-12-12T17:31:09.158Z,-3.50
2022-12-12T17:33:46.187Z,-3.60
2022-12-12T17:36:20.437Z,-3.70
2022-12-12T17:38:49.633Z,-3.70
2022-12-12T17:41:17.813Z,-3.80
2022-12-12T17:43:50.586Z,-3.80
2022-12-12T17:46:22.002Z,-3.80
2022-12-12T17:48:50.200Z,-3.80
2022-12-12T17:51:23.892Z,-3.80
2022-12-12T17:53:53.403Z,-3.90
2022-12-12T17:56:24.788Z,-3.90
2022-12-12T17:58:54.366Z,-4.00
2022-12-12T18:01:25.227Z,-4.10
2022-12-12T18:03:54.486Z,-4.10
2022-12-12T18:06:24.952Z,-4.20
2022-12-12T18:08:54.530Z,-4.30
2022-12-12T18:11:27.450Z,-4.30
2022-12-12T18:13:57.844Z,-4.30
2022-12-12T18:16:28.905Z,-4.40
2022-12-12T18:18:57.536Z,-4.40
2022-12-12T18:21:59.202Z,-4.40
2022-12-12T18:24:17.652Z,-4.40
2022-12-12T18:26:47.639Z,-4.40
2022-12-12T18:29:15.843Z,-4.40
2022-12-12T18:31:44.194Z,-4.40
2022-12-12T18:34:12.486Z,-4.40
2022-12-12T18:36:42.118Z,-4.40
2022-12-12T18:39:11.498Z,-4.30
2022-12-12T18:41:39.752Z,-4.30
2022-12-12T18:44:11.958Z,-4.30
2022-12-12T18:46:43.143Z,-4.30
2022-12-12T18:49:14.894Z,-4.20
2022-12-12T18:51:45.081Z,-4.30
2022-12-12T18:54:16.123Z,-4.30
2022-12-12T18:56:45.651Z,-4.40
2022-12-12T18:59:14.462Z,-4.40
2022-12-12T19:01:42.730Z,-4.50
2022-12-12T19:04:15.088Z,-4.50
2022-12-12T19:06:47.437Z,-4.50
2022-12-12T19:09:17.395Z,-4.50
2022-12-12T19:11:47.000Z,-4.40
2022-12-12T19:14:17.091Z,-4.40
2022-12-12T19:16:46.145Z,-4.30
2022-12-12T19:19:15.477Z,-4.40
2022-12-12T19:21:45.047Z,-4.50
2022-12-12T19:24:15.040Z,-4.50
2022-12-12T19:26:46.135Z,-4.60
2022-12-12T19:29:17.143Z,-4.70
2022-12-12T19:31:46.256Z,-4.80
2022-12-12T19:34:17.171Z,-4.80
2022-12-12T19:36:46.071Z,-4.90
2022-12-12T19:39:16.093Z,-4.90
2022-12-12T19:41:46.091Z,-5.00
2022-12-12T19:44:14.913Z,-5.00
2022-12-12T19:46:46.067Z,-5.10
2022-12-12T19:49:16.789Z,-5.10
2022-12-12T19:51:45.939Z,-5.10
2022-12-12T19:54:17.145Z,-5.20
2022-12-12T19:56:46.329Z,-5.20
2022-12-12T19:59:16.581Z,-5.20
2022-12-12T20:01:45.923Z,-5.20
2022-12-12T20:04:16.937Z,-5.30
2022-12-12T20:06:46.399Z,-5.30
2022-12-12T20:09:17.585Z,-5.40
2022-12-12T20:11:46.718Z,-5.40
2022-12-12T20:14:17.319Z,-5.40
2022-12-12T20:16:45.884Z,-5.50
2022-12-12T20:19:15.737Z,-5.50
2022-12-12T20:22:03.293Z,-5.60
2022-12-12T20:24:34.588Z,-5.60
2022-12-12T20:27:04.365Z,-5.70
2022-12-12T20:29:32.857Z,-5.70
2022-12-12T20:32:01.604Z,-5.80
2022-12-12T20:34:30.079Z,-5.80
2022-12-12T20:36:58.867Z,-5.80
2022-12-12T20:39:28.502Z,-5.80
2022-12-12T20:41:59.126Z,-5.80
2022-12-12T20:44:29.147Z,-5.80
2022-12-12T20:46:58.911Z,-5.80
2022-12-12T20:49:29.038Z,-5.70
2022-12-12T20:51:59.312Z,-5.70
2022-12-12T20:54:29.495Z,-5.60
2022-12-12T20:57:00.155Z,-5.60
2022-12-12T20:59:29.274Z,-5.70
2022-12-12T21:01:57.598Z,-5.70
2022-12-12T21:04:26.245Z,-5.70
2022-12-12T21:06:54.553Z,-5.70
2022-12-12T21:09:26.410Z,-5.70
2022-12-12T21:11:56.062Z,-5.70
2022-12-12T21:14:27.147Z,-5.70
2022-12-12T21:16:55.549Z,-5.80
2022-12-12T21:19:24.310Z,-5.80
2022-12-12T21:21:53.304Z,-5.80
2022-12-12T21:24:22.793Z,-5.70
2022-12-12T21:26:51.593Z,-5.70
2022-12-12T21:29:19.925Z,-5.70
2022-12-12T21:31:52.090Z,-5.80
2022-12-12T21:34:22.070Z,-5.80
2022-12-12T21:36:53.008Z,-5.80
2022-12-12T21:39:23.015Z,-5.80
2022-12-12T21:41:51.799Z,-5.70
2022-12-12T21:44:20.851Z,-5.70
2022-12-12T21:46:50.843Z,-5.60
2022-12-12T21:49:27.544Z,-5.50
2022-12-12T21:51:57.957Z,-5.40
2022-12-12T21:54:28.964Z,-5.20
2022-12-12T21:56:58.061Z,-5.10
2022-12-12T21:59:28.192Z,-5.10
2022-12-12T22:02:00.877Z,-5.00
2022-12-12T22:04:29.884Z,-5.10
2022-12-12T22:06:58.814Z,-5.10
2022-12-12T22:09:27.476Z,-5.20
2022-12-12T22:12:03.343Z,-5.20
2022-12-12T22:14:33.517Z,-5.20
2022-12-12T22:17:03.893Z,-5.30
2022-12-12T22:19:32.508Z,-5.30
2022-12-12T22:22:01.121Z,-5.30
2022-12-12T22:24:29.518Z,-5.20
2022-12-12T22:26:58.059Z,-5.30
2022-12-12T22:29:26.881Z,-5.30
2022-12-12T22:31:55.440Z,-5.40
2022-12-12T22:34:26.334Z,-5.50
2022-12-12T22:36:55.876Z,-5.60
2022-12-12T22:39:26.596Z,-5.70
2022-12-12T22:41:55.960Z,-5.70
2022-12-12T22:44:25.287Z,-5.80
2022-12-12T22:46:56.714Z,-5.90
2022-12-12T22:49:27.354Z,-6.00
2022-12-12T22:51:56.878Z,-6.10
2022-12-12T22:54:25.719Z,-6.10
2022-12-12T22:56:54.507Z,-6.10
2022-12-12T22:59:22.889Z,-6.10
2022-12-12T23:01:51.244Z,-6.20
2022-12-12T23:04:19.815Z,-6.10
2022-12-12T23:06:49.583Z,-6.10
2022-12-12T23:09:20.434Z,-6.10
2022-12-12T23:11:50.603Z,-6.00
2022-12-12T23:14:21.861Z,-5.90
2022-12-12T23:16:50.824Z,-5.70
2022-12-12T23:19:21.871Z,-5.60
2022-12-12T23:21:51.514Z,-5.50
2022-12-12T23:24:19.896Z,-5.40
2022-12-12T23:26:52.626Z,-5.20
2022-12-12T23:29:21.406Z,-5.10
2022-12-12T23:31:50.026Z,-5.00
2022-12-12T23:34:22.795Z,-4.90
2022-12-12T23:36:53.839Z,-4.80
2022-12-12T23:39:22.908Z,-4.60
2022-12-12T23:41:51.435Z,-4.50
2022-12-12T23:44:21.723Z,-4.40
2022-12-12T23:46:50.856Z,-4.30
2022-12-12T23:49:21.402Z,-4.20
2022-12-12T23:51:52.759Z,-4.20
2022-12-12T23:54:22.615Z,-4.10
2022-12-12T23:56:51.978Z,-4.10
2022-12-12T23:59:21.527Z,-4.00
